sensor_id;sensor_type;location;lat;lon;timestamp;pressure;altitude;pressure_sealevel;temperature;humidity
25650;BME280;13505;45.196;5.696;2024-03-29T05:30:46;97400.50;;;18.57;42.04
25650;BME280;13505;45.196;5.696;2024-03-29T05:35:36;97388.16;;;18.81;41.97
25650;BME280;13505;45.196;5.696;2024-03-29T05:40:27;97384.31;;;18.83;41.38
25650;BME280;13505;45.196;5.696;2024-03-29T05:45:35;97391.34;;;18.93;41.82
25650;BME280;13505;45.196;5.696;2024-03-29T05:50:26;97377.16;;;19.01;41.08
25650;BME280;13505;45.196;5.696;2024-03-29T05:55:16;97389.16;;;18.96;41.44
25650;BME280;13505;45.196;5.696;2024-03-29T06:00:08;97385.84;;;18.86;41.85
25650;BME280;13505;45.196;5.696;2024-03-29T06:04:59;97371.13;;;18.90;41.11
25650;BME280;13505;45.196;5.696;2024-03-29T06:09:49;97410.69;;;19.11;40.95
25650;BME280;13505;45.196;5.696;2024-03-29T06:14:40;97400.50;;;19.15;41.02
25650;BME280;13505;45.196;5.696;2024-03-29T06:19:53;97413.03;;;18.98;41.49
25650;BME280;13505;45.196;5.696;2024-03-29T06:24:53;97432.91;;;19.04;40.92
25650;BME280;13505;45.196;5.696;2024-03-29T06:29:44;97426.06;;;19.18;40.82
25650;BME280;13505;45.196;5.696;2024-03-29T06:34:34;97447.59;;;19.16;40.93
25650;BME280;13505;45.196;5.696;2024-03-29T06:39:25;97453.13;;;19.15;40.99
25650;BME280;13505;45.196;5.696;2024-03-29T06:44:16;97463.16;;;19.13;40.89
25650;BME280;13505;45.196;5.696;2024-03-29T06:49:06;97474.16;;;19.09;41.76
25650;BME280;13505;45.196;5.696;2024-03-29T06:53:56;97488.81;;;18.97;42.53
25650;BME280;13505;45.196;5.696;2024-03-29T06:58:47;97465.31;;;19.01;42.23
25650;BME280;13505;45.196;5.696;2024-03-29T07:03:37;97482.84;;;19.11;41.79
25650;BME280;13505;45.196;5.696;2024-03-29T07:08:27;97486.31;;;18.95;42.22
25650;BME280;13505;45.196;5.696;2024-03-29T07:13:18;97505.91;;;19.04;42.01
25650;BME280;13505;45.196;5.696;2024-03-29T07:18:08;97512.22;;;19.11;41.97
25650;BME280;13505;45.196;5.696;2024-03-29T07:22:58;97512.91;;;19.14;41.92
25650;BME280;13505;45.196;5.696;2024-03-29T07:27:49;97533.44;;;19.13;42.16
25650;BME280;13505;45.196;5.696;2024-03-29T07:32:39;97520.25;;;19.11;42.26
25650;BME280;13505;45.196;5.696;2024-03-29T07:37:30;97528.78;;;19.07;42.22
25650;BME280;13505;45.196;5.696;2024-03-29T07:42:20;97538.97;;;19.03;42.56
25650;BME280;13505;45.196;5.696;2024-03-29T07:47:12;97541.31;;;19.15;42.63
25650;BME280;13505;45.196;5.696;2024-03-29T07:52:06;97547.06;;;18.93;43.18
25650;BME280;13505;45.196;5.696;2024-03-29T07:56:56;97535.94;;;19.06;43.32
25650;BME280;13505;45.196;5.696;2024-03-29T08:01:47;97547.78;;;19.04;43.12
25650;BME280;13505;45.196;5.696;2024-03-29T08:06:37;97557.31;;;19.06;43.25
25650;BME280;13505;45.196;5.696;2024-03-29T08:11:27;97534.78;;;19.34;42.96
25650;BME280;13505;45.196;5.696;2024-03-29T08:16:18;97543.13;;;19.14;43.46
25650;BME280;13505;45.196;5.696;2024-03-29T08:21:09;97542.97;;;19.32;42.72
25650;BME280;13505;45.196;5.696;2024-03-29T08:26:02;97543.13;;;19.56;42.65
25650;BME280;13505;45.196;5.696;2024-03-29T08:31:05;97561.84;;;19.47;42.17
25650;BME280;13505;45.196;5.696;2024-03-29T08:35:56;97540.97;;;19.43;41.44
25650;BME280;13505;45.196;5.696;2024-03-29T08:40:46;97546.31;;;19.51;41.01
25650;BME280;13505;45.196;5.696;2024-03-29T08:45:38;97553.34;;;19.69;40.14
25650;BME280;13505;45.196;5.696;2024-03-29T08:50:30;97546.31;;;19.76;40.40
25650;BME280;13505;45.196;5.696;2024-03-29T08:55:21;97547.84;;;19.53;39.98
25650;BME280;13505;45.196;5.696;2024-03-29T09:00:11;97539.31;;;19.66;39.17
25650;BME280;13505;45.196;5.696;2024-03-29T09:05:03;97551.63;;;19.84;37.94
25650;BME280;13505;45.196;5.696;2024-03-29T09:09:53;97531.41;;;19.98;38.21
25650;BME280;13505;45.196;5.696;2024-03-29T09:14:45;97525.06;;;19.83;37.47
25650;BME280;13505;45.196;5.696;2024-03-29T09:19:35;97523.50;;;20.21;37.48
25650;BME280;13505;45.196;5.696;2024-03-29T09:24:25;97539.72;;;20.12;37.07
25650;BME280;13505;45.196;5.696;2024-03-29T09:29:17;97533.69;;;20.18;36.11
25650;BME280;13505;45.196;5.696;2024-03-29T09:34:10;97520.06;;;20.44;36.64
25650;BME280;13505;45.196;5.696;2024-03-29T09:39:00;97523.28;;;20.31;35.70
25650;BME280;13505;45.196;5.696;2024-03-29T09:43:51;97511.22;;;20.35;35.81
25650;BME280;13505;45.196;5.696;2024-03-29T09:48:44;97498.16;;;20.32;35.76
25650;BME280;13505;45.196;5.696;2024-03-29T09:53:37;97488.78;;;20.45;35.19
25650;BME280;13505;45.196;5.696;2024-03-29T09:58:27;97474.56;;;20.68;34.57
25650;BME280;13505;45.196;5.696;2024-03-29T10:03:18;97490.56;;;20.53;34.73
25650;BME280;13505;45.196;5.696;2024-03-29T10:08:09;97472.97;;;20.58;34.67
25650;BME280;13505;45.196;5.696;2024-03-29T10:13:00;97461.78;;;20.78;34.12
25650;BME280;13505;45.196;5.696;2024-03-29T10:17:50;97473.00;;;20.82;33.79
25650;BME280;13505;45.196;5.696;2024-03-29T10:22:42;97442.03;;;20.79;33.15
25650;BME280;13505;45.196;5.696;2024-03-29T10:27:33;97455.09;;;21.05;33.53
25650;BME280;13505;45.196;5.696;2024-03-29T10:32:23;97442.94;;;20.95;32.82
25650;BME280;13505;45.196;5.696;2024-03-29T10:37:14;97455.59;;;21.24;32.03
25650;BME280;13505;45.196;5.696;2024-03-29T10:42:06;97425.44;;;21.22;31.72
25650;BME280;13505;45.196;5.696;2024-03-29T10:46:57;97451.09;;;21.40;31.15
25650;BME280;13505;45.196;5.696;2024-03-29T10:51:49;97426.44;;;21.59;31.13
25650;BME280;13505;45.196;5.696;2024-03-29T10:56:43;97417.50;;;21.67;31.44
25650;BME280;13505;45.196;5.696;2024-03-29T11:01:39;97415.88;;;21.43;30.56
25650;BME280;13505;45.196;5.696;2024-03-29T11:06:32;97412.13;;;21.67;30.58
25650;BME280;13505;45.196;5.696;2024-03-29T11:11:28;97399.09;;;21.79;30.28
25650;BME280;13505;45.196;5.696;2024-03-29T11:16:21;97391.47;;;21.98;29.93
25650;BME280;13505;45.196;5.696;2024-03-29T11:21:11;97392.50;;;22.34;29.37
25650;BME280;13505;45.196;5.696;2024-03-29T11:26:04;97380.78;;;22.20;29.26
25650;BME280;13505;45.196;5.696;2024-03-29T11:31:01;97373.13;;;22.38;28.85
25650;BME280;13505;45.196;5.696;2024-03-29T11:35:56;97353.16;;;22.63;28.01
25650;BME280;13505;45.196;5.696;2024-03-29T11:41:12;97355.06;;;22.91;27.53
25650;BME280;13505;45.196;5.696;2024-03-29T11:46:08;97340.69;;;23.34;28.36
25650;BME280;13505;45.196;5.696;2024-03-29T11:50:59;97345.69;;;23.37;26.06
25650;BME280;13505;45.196;5.696;2024-03-29T11:55:50;97339.09;;;23.81;25.64
25650;BME280;13505;45.196;5.696;2024-03-29T12:00:43;97330.59;;;23.84;25.90
25650;BME280;13505;45.196;5.696;2024-03-29T12:05:35;97326.34;;;24.04;25.52
25650;BME280;13505;45.196;5.696;2024-03-29T12:10:29;97326.41;;;23.68;25.08
25650;BME280;13505;45.196;5.696;2024-03-29T12:15:20;97314.66;;;23.34;26.08
25650;BME280;13505;45.196;5.696;2024-03-29T12:20:10;97308.16;;;23.64;26.54
25650;BME280;13505;45.196;5.696;2024-03-29T12:25:03;97301.66;;;23.45;25.95
25650;BME280;13505;45.196;5.696;2024-03-29T12:29:53;97302.91;;;23.49;25.91
25650;BME280;13505;45.196;5.696;2024-03-29T12:34:44;97301.38;;;23.33;25.10
25650;BME280;13505;45.196;5.696;2024-03-29T12:39:34;97306.22;;;23.16;25.08
25650;BME280;13505;45.196;5.696;2024-03-29T12:44:26;97280.63;;;23.62;25.86
25650;BME280;13505;45.196;5.696;2024-03-29T12:49:17;97289.66;;;23.47;25.18
25650;BME280;13505;45.196;5.696;2024-03-29T12:54:09;97259.63;;;23.37;24.71
25650;BME280;13505;45.196;5.696;2024-03-29T12:59:00;97267.41;;;23.25;24.59
25650;BME280;13505;45.196;5.696;2024-03-29T13:03:50;97253.22;;;23.38;24.51
25650;BME280;13505;45.196;5.696;2024-03-29T13:08:41;97262.38;;;23.15;24.36
25650;BME280;13505;45.196;5.696;2024-03-29T13:13:32;97260.84;;;23.27;24.21
25650;BME280;13505;45.196;5.696;2024-03-29T13:18:22;97233.59;;;23.44;23.77
25650;BME280;13505;45.196;5.696;2024-03-29T13:23:12;97236.25;;;23.37;24.18
25650;BME280;13505;45.196;5.696;2024-03-29T13:28:04;97233.41;;;23.46;23.45
25650;BME280;13505;45.196;5.696;2024-03-29T13:32:55;97235.47;;;23.50;23.99
25650;BME280;13505;45.196;5.696;2024-03-29T13:37:46;97241.50;;;23.59;23.85
25650;BME280;13505;45.196;5.696;2024-03-29T13:42:37;97243.13;;;23.47;23.57
25650;BME280;13505;45.196;5.696;2024-03-29T13:47:27;97241.34;;;23.67;23.75
25650;BME280;13505;45.196;5.696;2024-03-29T13:52:18;97236.94;;;23.53;22.92
25650;BME280;13505;45.196;5.696;2024-03-29T13:57:08;97236.28;;;23.51;23.23
25650;BME280;13505;45.196;5.696;2024-03-29T14:01:59;97239.25;;;23.63;23.55
25650;BME280;13505;45.196;5.696;2024-03-29T14:06:50;97231.78;;;23.65;22.64
25650;BME280;13505;45.196;5.696;2024-03-29T14:11:41;97222.09;;;23.77;22.61
25650;BME280;13505;45.196;5.696;2024-03-29T14:16:33;97223.50;;;23.60;22.50
25650;BME280;13505;45.196;5.696;2024-03-29T14:21:24;97222.69;;;23.66;22.37
25650;BME280;13505;45.196;5.696;2024-03-29T14:26:14;97220.06;;;23.93;22.65
25650;BME280;13505;45.196;5.696;2024-03-29T14:31:04;97234.72;;;23.70;22.68
25650;BME280;13505;45.196;5.696;2024-03-29T14:35:55;97226.84;;;23.68;22.80
25650;BME280;13505;45.196;5.696;2024-03-29T14:40:47;97235.09;;;23.67;22.99
25650;BME280;13505;45.196;5.696;2024-03-29T14:45:38;97208.00;;;23.62;21.91
25650;BME280;13505;45.196;5.696;2024-03-29T14:50:28;97225.53;;;23.51;22.19
25650;BME280;13505;45.196;5.696;2024-03-29T14:55:19;97204.69;;;23.66;22.10
25650;BME280;13505;45.196;5.696;2024-03-29T15:00:10;97210.72;;;23.89;21.93
25650;BME280;13505;45.196;5.696;2024-03-29T15:05:00;97228.75;;;23.88;22.03
25650;BME280;13505;45.196;5.696;2024-03-29T15:09:51;97215.72;;;23.85;22.27
25650;BME280;13505;45.196;5.696;2024-03-29T15:14:42;97212.44;;;23.96;22.31
25650;BME280;13505;45.196;5.696;2024-03-29T15:19:32;97203.09;;;23.92;22.11
25650;BME280;13505;45.196;5.696;2024-03-29T15:24:23;97203.47;;;23.76;21.51
25650;BME280;13505;45.196;5.696;2024-03-29T15:29:13;97204.53;;;23.81;22.99
25650;BME280;13505;45.196;5.696;2024-03-29T15:34:07;97194.97;;;23.72;22.58
25650;BME280;13505;45.196;5.696;2024-03-29T15:38:59;97192.63;;;23.49;22.18
25650;BME280;13505;45.196;5.696;2024-03-29T15:43:57;97192.50;;;23.77;22.62
25650;BME280;13505;45.196;5.696;2024-03-29T15:48:49;97183.38;;;23.72;22.93
25650;BME280;13505;45.196;5.696;2024-03-29T15:53:39;97183.38;;;23.78;22.24
25650;BME280;13505;45.196;5.696;2024-03-29T15:58:30;97188.97;;;23.70;22.00
25650;BME280;13505;45.196;5.696;2024-03-29T16:03:21;97193.53;;;23.69;23.14
25650;BME280;13505;45.196;5.696;2024-03-29T16:08:14;97191.13;;;23.33;22.59
25650;BME280;13505;45.196;5.696;2024-03-29T16:13:04;97199.19;;;23.33;22.92
25650;BME280;13505;45.196;5.696;2024-03-29T16:17:55;97210.50;;;23.21;23.08
25650;BME280;13505;45.196;5.696;2024-03-29T16:22:45;97212.44;;;23.34;22.85
25650;BME280;13505;45.196;5.696;2024-03-29T16:27:36;97186.78;;;23.32;23.19
25650;BME280;13505;45.196;5.696;2024-03-29T16:32:26;97208.91;;;23.34;22.81
25650;BME280;13505;45.196;5.696;2024-03-29T16:37:19;97211.28;;;23.15;22.78
25650;BME280;13505;45.196;5.696;2024-03-29T16:42:09;97218.75;;;23.20;22.86
25650;BME280;13505;45.196;5.696;2024-03-29T16:47:00;97236.28;;;23.09;23.18
25650;BME280;13505;45.196;5.696;2024-03-29T16:51:50;97242.47;;;23.09;23.02
25650;BME280;13505;45.196;5.696;2024-03-29T16:56:40;97244.78;;;23.12;23.42
25650;BME280;13505;45.196;5.696;2024-03-29T17:01:33;97244.66;;;22.92;23.50
25650;BME280;13505;45.196;5.696;2024-03-29T17:06:23;97261.63;;;22.64;23.38
25650;BME280;13505;45.196;5.696;2024-03-29T17:11:13;97266.06;;;22.79;23.51
25650;BME280;13505;45.196;5.696;2024-03-29T17:16:04;97260.16;;;22.62;23.88
25650;BME280;13505;45.196;5.696;2024-03-29T17:20:54;97259.72;;;22.58;23.94
25650;BME280;13505;45.196;5.696;2024-03-29T17:25:46;97264.06;;;22.59;23.80
25650;BME280;13505;45.196;5.696;2024-03-29T17:30:36;97259.78;;;22.43;24.19
25650;BME280;13505;45.196;5.696;2024-03-29T17:35:26;97240.88;;;22.29;24.35
25650;BME280;13505;45.196;5.696;2024-03-29T17:40:17;97263.31;;;22.22;24.39
25650;BME280;13505;45.196;5.696;2024-03-29T17:45:07;97246.94;;;22.16;24.89
25650;BME280;13505;45.196;5.696;2024-03-29T17:49:58;97254.75;;;22.11;24.66
25650;BME280;13505;45.196;5.696;2024-03-29T17:54:48;97243.97;;;22.05;24.74
25650;BME280;13505;45.196;5.696;2024-03-29T17:59:39;97240.94;;;22.14;24.94
25650;BME280;13505;45.196;5.696;2024-03-29T18:04:29;97235.44;;;22.01;24.88
25650;BME280;13505;45.196;5.696;2024-03-29T18:09:20;97237.16;;;21.87;24.86
25650;BME280;13505;45.196;5.696;2024-03-29T18:14:10;97239.88;;;21.72;25.37
25650;BME280;13505;45.196;5.696;2024-03-29T18:19:00;97236.13;;;21.88;24.85
25650;BME280;13505;45.196;5.696;2024-03-29T18:23:51;97240.81;;;21.79;24.79
25650;BME280;13505;45.196;5.696;2024-03-29T18:28:41;97248.19;;;21.77;24.68
25650;BME280;13505;45.196;5.696;2024-03-29T18:33:34;97252.09;;;21.74;24.00
25650;BME280;13505;45.196;5.696;2024-03-29T18:38:25;97243.47;;;21.79;23.97
25650;BME280;13505;45.196;5.696;2024-03-29T18:43:18;97241.56;;;21.73;23.60
25650;BME280;13505;45.196;5.696;2024-03-29T18:48:08;97238.13;;;21.79;23.55
25650;BME280;13505;45.196;5.696;2024-03-29T18:52:59;97243.22;;;21.74;22.98
25650;BME280;13505;45.196;5.696;2024-03-29T18:57:49;97244.88;;;21.75;23.08
25650;BME280;13505;45.196;5.696;2024-03-29T19:02:39;97245.72;;;21.60;22.67
25650;BME280;13505;45.196;5.696;2024-03-29T19:07:29;97242.97;;;21.69;22.62
25650;BME280;13505;45.196;5.696;2024-03-29T19:12:20;97261.28;;;21.50;22.27
25650;BME280;13505;45.196;5.696;2024-03-29T19:17:12;97267.19;;;21.60;23.07
25650;BME280;13505;45.196;5.696;2024-03-29T19:22:02;97268.59;;;21.11;24.01
25650;BME280;13505;45.196;5.696;2024-03-29T19:26:53;97282.47;;;21.00;23.50
25650;BME280;13505;45.196;5.696;2024-03-29T19:31:43;97277.38;;;21.20;24.62
25650;BME280;13505;45.196;5.696;2024-03-29T19:36:34;97283.50;;;21.14;24.01
25650;BME280;13505;45.196;5.696;2024-03-29T19:41:25;97287.72;;;20.93;23.84
25650;BME280;13505;45.196;5.696;2024-03-29T19:46:16;97276.19;;;21.08;22.70
25650;BME280;13505;45.196;5.696;2024-03-29T19:51:07;97271.44;;;20.95;22.45
25650;BME280;13505;45.196;5.696;2024-03-29T19:55:57;97280.13;;;20.97;22.01
25650;BME280;13505;45.196;5.696;2024-03-29T20:00:47;97267.59;;;20.97;21.43
25650;BME280;13505;45.196;5.696;2024-03-29T20:05:38;97265.69;;;20.68;23.46
25650;BME280;13505;45.196;5.696;2024-03-29T20:10:28;97273.34;;;20.71;21.47
25650;BME280;13505;45.196;5.696;2024-03-29T20:15:18;97287.53;;;21.10;20.63
25650;BME280;13505;45.196;5.696;2024-03-29T20:20:09;97269.75;;;20.78;20.79
25650;BME280;13505;45.196;5.696;2024-03-29T20:25:00;97277.47;;;20.97;20.45
25650;BME280;13505;45.196;5.696;2024-03-29T20:29:50;97262.41;;;21.11;19.42
25650;BME280;13505;45.196;5.696;2024-03-29T20:34:41;97279.16;;;20.74;20.21
25650;BME280;13505;45.196;5.696;2024-03-29T20:39:31;97264.03;;;20.82;19.77
25650;BME280;13505;45.196;5.696;2024-03-29T20:44:21;97291.34;;;20.62;21.10
25650;BME280;13505;45.196;5.696;2024-03-29T20:49:12;97274.75;;;20.82;19.34
25650;BME280;13505;45.196;5.696;2024-03-29T20:54:02;97268.03;;;20.86;19.49
25650;BME280;13505;45.196;5.696;2024-03-29T20:58:53;97279.69;;;20.93;18.87
25650;BME280;13505;45.196;5.696;2024-03-29T21:03:43;97287.31;;;20.81;19.83
25650;BME280;13505;45.196;5.696;2024-03-29T21:08:53;97291.31;;;21.00;19.28
25650;BME280;13505;45.196;5.696;2024-03-29T21:13:44;97283.09;;;20.87;19.16
25650;BME280;13505;45.196;5.696;2024-03-29T21:18:34;97289.03;;;20.97;18.53
25650;BME280;13505;45.196;5.696;2024-03-29T21:23:24;97273.13;;;21.11;18.13
25650;BME280;13505;45.196;5.696;2024-03-29T21:28:15;97276.63;;;20.96;18.57
25650;BME280;13505;45.196;5.696;2024-03-29T21:33:05;97288.84;;;20.99;18.30
25650;BME280;13505;45.196;5.696;2024-03-29T21:37:55;97283.94;;;21.02;18.23
25650;BME280;13505;45.196;5.696;2024-03-29T21:42:46;97279.31;;;21.11;17.66
25650;BME280;13505;45.196;5.696;2024-03-29T21:47:38;97258.91;;;21.10;17.88
25650;BME280;13505;45.196;5.696;2024-03-29T21:52:28;97266.56;;;21.13;17.89
25650;BME280;13505;45.196;5.696;2024-03-29T21:57:20;97279.31;;;21.26;17.14
25650;BME280;13505;45.196;5.696;2024-03-29T22:02:11;97285.41;;;21.50;17.28
25650;BME280;13505;45.196;5.696;2024-03-29T22:07:03;97269.50;;;21.33;17.22
25650;BME280;13505;45.196;5.696;2024-03-29T22:11:53;97245.84;;;21.22;17.39
25650;BME280;13505;45.196;5.696;2024-03-29T22:16:44;97260.75;;;21.10;17.69
25650;BME280;13505;45.196;5.696;2024-03-29T22:21:34;97242.81;;;21.25;17.55
25650;BME280;13505;45.196;5.696;2024-03-29T22:26:24;97251.78;;;21.02;17.48
25650;BME280;13505;45.196;5.696;2024-03-29T22:31:15;97259.09;;;21.09;17.23
25650;BME280;13505;45.196;5.696;2024-03-29T22:36:06;97276.91;;;21.16;17.71
25650;BME280;13505;45.196;5.696;2024-03-29T22:40:56;97276.19;;;21.23;17.65
25650;BME280;13505;45.196;5.696;2024-03-29T22:45:47;97267.22;;;21.00;17.79
25650;BME280;13505;45.196;5.696;2024-03-29T22:50:38;97292.34;;;20.99;17.78
25650;BME280;13505;45.196;5.696;2024-03-29T22:55:28;97314.88;;;20.90;18.51
